Chloride, Arizona
Current Conditions -  °F | °C
As of 6:51 PM on Sunday 25 Jan 2015 (Local Time) from KIGM Reporting Station
Clear Clear  
Wind Chill: 46°   Ceiling: Unl
Heat Index: 49°   Visibility: 10mi
Dew Point: 27°   Wind: 7mph
Humidity: 43%   Direction: 80°E
Pressure: 30.16"   Gusts: NA
Location:  35.41°N, 114.2°W
Report Text: KIGM 260151Z AUTO 08006KT 10SM CLR 09/M03 A3016 RMK AO2 SLP186 T00941028 $
Loading
Personal Weather Stations






























Interactive Weather Map New forecast layout! Learn more

10-Day Weather Forecast

Advertisements
Track Severe Weather on mobile